Time,TemperatureF,DewpointF,PressureIn,WindDirection,WindDirectionDegrees,WindSpeedMPH,WindSpeedGustMPH,Humidity,HourlyPrecipIn,Conditions,Clouds,dailyrainin,SoftwareType,DateUTC
2013-03-21 00:07:00,27.5,18.0,29.74,West,276,4.0,8.0,67,0.00,,,0.00,weatherlink.com 1.10,2013-03-21 04:07:00,
2013-03-21 00:22:00,27.1,18.0,29.74,WNW,283,2.0,12.0,68,0.00,,,0.00,weatherlink.com 1.10,2013-03-21 04:22:00,
2013-03-21 00:37:00,26.6,18.0,29.74,WNW,289,3.0,9.0,69,0.00,,,0.00,weatherlink.com 1.10,2013-03-21 04:37:00,
2013-03-21 00:52:00,26.6,18.0,29.74,West,273,4.0,11.0,69,0.00,,,0.00,weatherlink.com 1.10,2013-03-21 04:52:00,
2013-03-21 01:07:00,26.5,17.0,29.74,WSW,252,4.0,8.0,68,0.00,,,0.00,weatherlink.com 1.10,2013-03-21 05:07:00,
2013-03-21 01:24:00,26.2,17.0,29.74,West,275,5.0,10.0,69,0.00,,,0.00,weatherlink.com 1.10,2013-03-21 05:24:00,
2013-03-21 01:37:00,25.7,17.0,29.75,WNW,282,2.0,6.0,69,0.00,,,0.00,weatherlink.com 1.10,2013-03-21 05:37:00,
2013-03-21 01:52:00,25.2,17.0,29.75,West,261,1.0,6.0,70,0.00,,,0.00,weatherlink.com 1.10,2013-03-21 05:52:00,
2013-03-21 02:07:00,24.9,17.0,29.75,WNW,292,0.0,8.0,71,0.00,,,0.00,weatherlink.com 1.10,2013-03-21 06:07:00,
2013-03-21 02:22:00,24.9,17.0,29.75,WNW,282,3.0,5.0,71,0.00,,,0.00,weatherlink.com 1.10,2013-03-21 06:22:00,
2013-03-21 02:37:00,24.4,17.0,29.75,NW,306,1.0,7.0,72,0.00,,,0.00,weatherlink.com 1.10,2013-03-21 06:37:00,
2013-03-21 02:52:00,24.0,17.0,29.75,West,274,2.0,6.0,73,0.00,,,0.00,weatherlink.com 1.10,2013-03-21 06:52:00,
2013-03-21 03:07:00,23.4,16.0,29.75,West,280,2.0,5.0,74,0.00,,,0.00,weatherlink.com 1.10,2013-03-21 07:07:00,
2013-03-21 03:22:00,22.9,16.0,29.75,WSW,252,4.0,4.0,75,0.00,,,0.00,weatherlink.com 1.10,2013-03-21 07:22:00,
2013-03-21 03:37:00,22.5,16.0,29.75,West,271,0.0,3.0,75,0.00,,,0.00,weatherlink.com 1.10,2013-03-21 07:37:00,
2013-03-21 03:52:00,21.6,15.0,29.74,West,268,0.0,1.0,76,0.00,,,0.00,weatherlink.com 1.10,2013-03-21 07:52:00,
2013-03-21 04:07:00,22.1,16.0,29.74,West,277,0.0,7.0,77,0.00,,,0.00,weatherlink.com 1.10,2013-03-21 08:07:00,
2013-03-21 04:22:00,22.4,16.0,29.74,SSW,196,0.0,5.0,76,0.00,,,0.00,weatherlink.com 1.10,2013-03-21 08:22:00,
2013-03-21 04:37:00,22.5,16.0,29.74,WNW,291,1.0,7.0,76,0.00,,,0.00,weatherlink.com 1.10,2013-03-21 08:37:00,
2013-03-21 04:52:00,22.1,15.0,29.74,West,277,0.0,4.0,75,0.00,,,0.00,weatherlink.com 1.10,2013-03-21 08:52:00,
2013-03-21 05:07:00,18.8,14.0,29.74,West,277,0.0,2.0,80,0.00,,,0.00,weatherlink.com 1.10,2013-03-21 09:07:00,
2013-03-21 05:23:00,16.2,12.0,29.74,West,277,0.0,1.0,82,0.00,,,0.00,weatherlink.com 1.10,2013-03-21 09:23:00,
2013-03-21 05:38:00,14.9,12.0,29.74,West,277,0.0,0.0,86,0.00,,,0.00,weatherlink.com 1.10,2013-03-21 09:38:00,
2013-03-21 05:53:00,14.1,11.0,29.74,West,277,1.0,2.0,87,0.00,,,0.00,weatherlink.com 1.10,2013-03-21 09:53:00,
2013-03-21 06:08:00,13.2,10.0,29.75,West,277,0.0,1.0,87,0.00,,,0.00,weatherlink.com 1.10,2013-03-21 10:08:00,
2013-03-21 06:23:00,12.7,10.0,29.75,West,277,1.0,2.0,88,0.00,,,0.00,weatherlink.com 1.10,2013-03-21 10:23:00,
2013-03-21 06:39:00,12.0,9.0,29.75,West,277,0.0,2.0,89,0.00,,,0.00,weatherlink.com 1.10,2013-03-21 10:39:00,
2013-03-21 06:53:00,12.5,10.0,29.75,South,171,3.0,4.0,90,0.00,,,0.00,weatherlink.com 1.10,2013-03-21 10:53:00,
2013-03-21 07:08:00,12.3,10.0,29.76,South,171,0.0,2.0,89,0.00,,,0.00,weatherlink.com 1.10,2013-03-21 11:08:00,
2013-03-21 07:23:00,12.1,9.0,29.76,South,171,0.0,2.0,88,0.00,,,0.00,weatherlink.com 1.10,2013-03-21 11:23:00,
2013-03-21 07:38:00,12.6,10.0,29.76,South,171,3.0,3.0,89,0.00,,,0.00,weatherlink.com 1.10,2013-03-21 11:38:00,
2013-03-21 07:53:00,13.4,10.0,29.76,South,171,0.0,2.0,87,0.00,,,0.00,weatherlink.com 1.10,2013-03-21 11:53:00,
2013-03-21 08:08:00,15.5,12.0,29.76,South,171,0.0,1.0,85,0.00,,,0.00,weatherlink.com 1.10,2013-03-21 12:08:00,
2013-03-21 08:23:00,18.0,14.0,29.76,South,171,0.0,2.0,83,0.00,,,0.00,weatherlink.com 1.10,2013-03-21 12:23:00,
2013-03-21 08:40:00,21.9,17.0,29.76,South,171,0.0,2.0,80,0.00,,,0.00,weatherlink.com 1.10,2013-03-21 12:40:00,
2013-03-21 08:53:00,25.3,18.0,29.76,South,171,0.0,1.0,73,0.00,,,0.00,weatherlink.com 1.10,2013-03-21 12:53:00,
2013-03-21 09:08:00,27.4,18.0,29.76,South,169,0.0,2.0,67,0.00,,,0.00,weatherlink.com 1.10,2013-03-21 13:08:00,
2013-03-21 09:23:00,28.4,18.0,29.75,South,178,1.0,2.0,64,0.00,,,0.00,weatherlink.com 1.10,2013-03-21 13:23:00,
2013-03-21 09:38:00,28.3,17.0,29.75,WSW,256,1.0,7.0,64,0.00,,,0.00,weatherlink.com 1.10,2013-03-21 13:38:00,
2013-03-21 09:53:00,29.6,18.0,29.74,WSW,257,2.0,5.0,63,0.01,,,0.01,weatherlink.com 1.10,2013-03-21 13:53:00,
2013-03-21 10:08:00,31.0,18.0,29.74,SSE,148,6.0,6.0,59,0.01,,,0.01,weatherlink.com 1.10,2013-03-21 14:08:00,
2013-03-21 10:23:00,30.9,17.0,29.74,WNW,294,3.0,7.0,56,0.01,,,0.01,weatherlink.com 1.10,2013-03-21 14:23:00,
2013-03-21 10:38:00,31.2,16.0,29.73,West,279,5.0,8.0,54,0.01,,,0.01,weatherlink.com 1.10,2013-03-21 14:38:00,
2013-03-21 10:53:00,32.0,17.0,29.72,West,263,2.0,8.0,55,0.00,,,0.01,weatherlink.com 1.10,2013-03-21 14:53:00,
2013-03-21 11:08:00,32.5,16.0,29.72,West,276,0.0,10.0,52,0.00,,,0.01,weatherlink.com 1.10,2013-03-21 15:08:00,
2013-03-21 11:23:00,32.8,16.0,29.71,NW,304,3.0,7.0,50,0.00,,,0.01,weatherlink.com 1.10,2013-03-21 15:23:00,
2013-03-21 11:38:00,32.6,15.0,29.70,WNW,298,8.0,8.0,49,0.00,,,0.01,weatherlink.com 1.10,2013-03-21 15:38:00,
2013-03-21 11:53:00,33.5,16.0,29.70,NW,319,2.0,7.0,48,0.00,,,0.01,weatherlink.com 1.10,2013-03-21 15:53:00,
2013-03-21 12:08:00,34.3,16.0,29.69,NW,304,2.0,7.0,47,0.00,,,0.01,weatherlink.com 1.10,2013-03-21 16:08:00,
2013-03-21 12:23:00,35.1,14.0,29.69,WSW,253,3.0,7.0,42,0.00,,,0.01,weatherlink.com 1.10,2013-03-21 16:23:00,
2013-03-21 12:39:00,35.1,14.0,29.69,NW,308,0.0,10.0,42,0.00,,,0.01,weatherlink.com 1.10,2013-03-21 16:39:00,
2013-03-21 12:54:00,36.5,15.0,29.68,NW,315,5.0,6.0,41,0.02,,,0.03,weatherlink.com 1.10,2013-03-21 16:54:00,
2013-03-21 13:09:00,36.9,15.0,29.67,SSE,163,3.0,8.0,40,0.03,,,0.04,weatherlink.com 1.10,2013-03-21 17:09:00,
2013-03-21 13:24:00,37.7,14.0,29.66,WSW,257,2.0,6.0,38,0.04,,,0.05,weatherlink.com 1.10,2013-03-21 17:24:00,
2013-03-21 13:39:00,37.6,13.0,29.65,West,276,0.0,5.0,36,0.05,,,0.06,weatherlink.com 1.10,2013-03-21 17:39:00,
2013-03-21 13:54:00,37.4,13.0,29.65,East,98,2.0,8.0,36,0.04,,,0.07,weatherlink.com 1.10,2013-03-21 17:54:00,
2013-03-21 14:09:00,37.8,13.0,29.64,WNW,297,5.0,8.0,37,0.04,,,0.08,weatherlink.com 1.10,2013-03-21 18:09:00,
2013-03-21 14:24:00,37.1,12.0,29.63,WSW,254,4.0,9.0,35,0.04,,,0.09,weatherlink.com 1.10,2013-03-21 18:24:00,
2013-03-21 14:39:00,38.7,12.0,29.62,NW,304,1.0,4.0,33,0.03,,,0.09,weatherlink.com 1.10,2013-03-21 18:39:00,
2013-03-21 14:55:00,38.4,11.0,29.61,West,263,1.0,6.0,32,0.03,,,0.10,weatherlink.com 1.10,2013-03-21 18:55:00,
2013-03-21 15:09:00,39.1,12.0,29.60,SE,136,1.0,7.0,33,0.03,,,0.11,weatherlink.com 1.10,2013-03-21 19:09:00,
2013-03-21 15:24:00,39.2,11.0,29.59,NNW,329,2.0,4.0,31,0.02,,,0.11,weatherlink.com 1.10,2013-03-21 19:24:00,
2013-03-21 15:39:00,40.2,12.0,29.59,NNW,346,1.0,3.0,31,0.03,,,0.12,weatherlink.com 1.10,2013-03-21 19:39:00,
2013-03-21 15:54:00,39.4,12.0,29.58,WNW,291,3.0,7.0,32,0.02,,,0.12,weatherlink.com 1.10,2013-03-21 19:54:00,
2013-03-21 16:09:00,38.8,11.0,29.57,SE,127,1.0,7.0,32,0.01,,,0.12,weatherlink.com 1.10,2013-03-21 20:09:00,
2013-03-21 16:24:00,37.7,10.0,29.57,West,281,3.0,5.0,32,0.01,,,0.12,weatherlink.com 1.10,2013-03-21 20:24:00,
2013-03-21 16:39:00,38.3,13.0,29.57,SSE,164,0.0,3.0,35,0.00,,,0.12,weatherlink.com 1.10,2013-03-21 20:39:00,
2013-03-21 16:54:00,39.0,11.0,29.57,WSW,244,5.0,6.0,32,0.00,,,0.12,weatherlink.com 1.10,2013-03-21 20:54:00,
2013-03-21 17:09:00,37.6,11.0,29.57,West,273,5.0,7.0,33,0.00,,,0.12,weatherlink.com 1.10,2013-03-21 21:09:00,
2013-03-21 17:24:00,37.1,12.0,29.57,NW,314,0.0,6.0,36,0.00,,,0.12,weatherlink.com 1.10,2013-03-21 21:24:00,
2013-03-21 17:39:00,36.9,11.0,29.57,West,275,1.0,5.0,34,0.00,,,0.12,weatherlink.com 1.10,2013-03-21 21:39:00,
2013-03-21 17:54:00,36.8,13.0,29.58,WNW,296,0.0,3.0,38,0.00,,,0.12,weatherlink.com 1.10,2013-03-21 21:54:00,
2013-03-21 18:09:00,36.9,12.0,29.58,WNW,296,0.0,0.0,36,0.00,,,0.12,weatherlink.com 1.10,2013-03-21 22:09:00,
2013-03-21 18:24:00,36.5,12.0,29.59,WNW,296,2.0,2.0,37,0.00,,,0.12,weatherlink.com 1.10,2013-03-21 22:24:00,
2013-03-21 18:39:00,35.6,12.0,29.59,WNW,296,0.0,1.0,38,0.00,,,0.12,weatherlink.com 1.10,2013-03-21 22:39:00,
2013-03-21 18:54:00,34.1,16.0,29.60,WNW,296,0.0,0.0,47,0.00,,,0.12,weatherlink.com 1.10,2013-03-21 22:54:00,
2013-03-21 19:09:00,32.3,18.0,29.61,WNW,296,0.0,0.0,56,0.00,,,0.12,weatherlink.com 1.10,2013-03-21 23:09:00,
2013-03-21 19:24:00,30.4,17.0,29.61,WNW,296,0.0,0.0,59,0.00,,,0.12,weatherlink.com 1.10,2013-03-21 23:24:00,
2013-03-21 19:54:00,27.2,18.0,29.61,WNW,296,0.0,0.0,68,0.00,,,0.12,weatherlink.com 1.10,2013-03-21 23:54:00,
2013-03-21 20:09:00,26.7,18.0,29.62,WNW,296,0.0,0.0,69,0.00,,,0.12,weatherlink.com 1.10,2013-03-22 00:09:00,
2013-03-21 20:24:00,26.0,17.0,29.62,WNW,296,0.0,0.0,70,0.00,,,0.12,weatherlink.com 1.10,2013-03-22 00:24:00,
2013-03-21 20:39:00,24.8,17.0,29.62,WNW,296,0.0,0.0,73,0.00,,,0.12,weatherlink.com 1.10,2013-03-22 00:39:00,
2013-03-21 20:54:00,24.1,17.0,29.62,WNW,296,0.0,3.0,73,0.00,,,0.12,weatherlink.com 1.10,2013-03-22 00:54:00,
2013-03-21 21:09:00,23.6,17.0,29.62,WNW,296,0.0,0.0,77,0.00,,,0.12,weatherlink.com 1.10,2013-03-22 01:09:00,
2013-03-21 21:24:00,24.1,18.0,29.62,WNW,296,0.0,1.0,76,0.00,,,0.12,weatherlink.com 1.10,2013-03-22 01:24:00,
2013-03-21 21:39:00,23.7,17.0,29.62,WNW,296,0.0,0.0,75,0.00,,,0.12,weatherlink.com 1.10,2013-03-22 01:39:00,
2013-03-21 21:54:00,23.2,17.0,29.62,WNW,296,0.0,0.0,76,0.00,,,0.12,weatherlink.com 1.10,2013-03-22 01:54:00,
2013-03-21 22:10:00,22.8,15.0,29.62,WNW,296,0.0,0.0,73,0.00,,,0.12,weatherlink.com 1.10,2013-03-22 02:10:00,
2013-03-21 22:25:00,23.1,15.0,29.62,WNW,296,0.0,0.0,71,0.00,,,0.12,weatherlink.com 1.10,2013-03-22 02:25:00,
2013-03-21 22:40:00,25.4,15.0,29.62,WNW,296,0.0,2.0,66,0.00,,,0.12,weatherlink.com 1.10,2013-03-22 02:40:00,
2013-03-21 22:55:00,26.8,16.0,29.62,NW,313,3.0,3.0,64,0.00,,,0.12,weatherlink.com 1.10,2013-03-22 02:55:00,
2013-03-21 23:10:00,27.6,16.0,29.62,WNW,288,0.0,5.0,61,0.00,,,0.12,weatherlink.com 1.10,2013-03-22 03:10:00,
2013-03-21 23:25:00,27.9,16.0,29.62,WNW,294,0.0,5.0,60,0.00,,,0.12,weatherlink.com 1.10,2013-03-22 03:25:00,
2013-03-21 23:40:00,26.7,16.0,29.62,WNW,294,0.0,1.0,63,0.00,,,0.12,weatherlink.com 1.10,2013-03-22 03:40:00,
2013-03-21 23:55:00,25.8,16.0,29.62,WNW,294,0.0,0.0,66,0.00,,,0.12,weatherlink.com 1.10,2013-03-22 03:55:00,